Time;durP1;ratioP1;P1;durP2;ratioP2;P2;SDS_P1;SDS_P2;PMS_P1;PMS_P2;Temp;Humidity;BMP_temperature;BMP_pressure;BME280_temperature;BME280_humidity;BME280_pressure;Samples;Min_cycle;Max_cycle;Signal;HPM_P1;HPM_P2
2022/04/24 00:01:32;;;;;;;14.60;8.27;;;10.10;99.90;;;;;;4992591;28;20080;-70
2022/04/24 00:03:58;;;;;;;13.00;9.05;;;10.20;99.90;;;;;;4988343;28;20045;-70
2022/04/24 00:06:24;;;;;;;12.25;8.13;;;9.90;99.90;;;;;;5000354;28;20041;-70
2022/04/24 00:08:51;;;;;;;13.27;8.75;;;10.10;99.90;;;;;;4995038;28;20057;-70
2022/04/24 00:11:17;;;;;;;10.93;8.25;;;10.00;99.90;;;;;;4993347;28;20047;-73
2022/04/24 00:13:43;;;;;;;13.80;7.95;;;10.00;99.90;;;;;;4979982;28;20053;-72
2022/04/24 00:16:10;;;;;;;10.60;7.47;;;9.90;99.90;;;;;;4995951;28;20056;-72
2022/04/24 00:18:38;;;;;;;11.40;7.97;;;9.90;99.90;;;;;;4997880;28;20052;-73
2022/04/24 00:21:04;;;;;;;11.20;7.47;;;10.10;99.90;;;;;;4994330;28;20108;-73
2022/04/24 00:23:31;;;;;;;11.27;7.90;;;9.80;99.90;;;;;;5000684;28;20045;-70
2022/04/24 00:25:58;;;;;;;14.50;7.95;;;9.80;99.90;;;;;;4996901;28;20041;-70
2022/04/24 00:28:24;;;;;;;12.13;7.88;;;9.80;99.90;;;;;;5011875;28;20049;-70
2022/04/24 00:30:50;;;;;;;12.88;7.38;;;9.70;99.90;;;;;;4994490;28;20108;-70
2022/04/24 00:33:16;;;;;;;11.38;7.63;;;9.60;99.90;;;;;;4997870;28;20041;-70
2022/04/24 00:35:42;;;;;;;11.80;8.15;;;9.50;99.90;;;;;;4998284;28;20053;-70
2022/04/24 00:38:07;;;;;;;12.65;7.43;;;9.50;99.90;;;;;;4995664;28;20123;-70
2022/04/24 00:40:33;;;;;;;11.57;7.78;;;9.70;99.90;;;;;;4997792;28;20491;-70
2022/04/24 00:42:59;;;;;;;12.15;7.55;;;9.50;99.90;;;;;;4995419;28;20052;-70
2022/04/24 00:45:25;;;;;;;12.68;6.68;;;9.60;99.90;;;;;;5014085;28;20099;-70
2022/04/24 00:47:51;;;;;;;13.65;8.27;;;9.60;99.90;;;;;;5017324;28;20435;-70
2022/04/24 00:50:18;;;;;;;10.85;7.38;;;9.50;99.90;;;;;;4981902;28;20141;-70
2022/04/24 00:52:45;;;;;;;12.73;7.90;;;9.50;99.90;;;;;;5002844;28;20848;-70
2022/04/24 00:55:11;;;;;;;10.32;7.25;;;9.30;99.90;;;;;;5020098;28;20079;-70
2022/04/24 00:57:37;;;;;;;11.98;7.05;;;9.40;99.90;;;;;;5016219;28;20112;-70
2022/04/24 01:00:03;;;;;;;11.77;7.20;;;9.50;99.90;;;;;;5002910;28;20080;-70
2022/04/24 01:02:29;;;;;;;10.68;7.45;;;9.50;99.90;;;;;;5020599;28;20047;-70
2022/04/24 01:04:57;;;;;;;10.90;6.35;;;9.50;99.90;;;;;;5026290;28;20053;-70
2022/04/24 01:07:23;;;;;;;11.07;7.45;;;9.50;99.90;;;;;;5025788;28;20045;-70
2022/04/24 01:09:49;;;;;;;9.63;7.53;;;9.40;99.90;;;;;;5026385;28;20604;-70
2022/04/24 01:12:15;;;;;;;14.27;7.22;;;9.30;99.90;;;;;;5015756;28;20204;-70
2022/04/24 01:14:41;;;;;;;12.63;7.35;;;9.30;99.90;;;;;;5019250;28;20060;-70
2022/04/24 01:17:07;;;;;;;11.07;6.95;;;9.20;99.90;;;;;;5001213;28;20044;-70
2022/04/24 01:19:33;;;;;;;11.73;7.53;;;9.20;99.90;;;;;;5015616;28;20040;-70
2022/04/24 01:21:59;;;;;;;11.00;7.55;;;9.10;99.90;;;;;;5002002;28;20045;-70
2022/04/24 01:24:29;;;;;;;11.35;7.85;;;9.10;99.90;;;;;;5013442;28;20055;-70
2022/04/24 01:26:55;;;;;;;10.77;6.85;;;8.90;99.90;;;;;;5021449;28;20055;-69
2022/04/24 01:29:21;;;;;;;10.13;7.25;;;9.20;99.90;;;;;;5023951;28;20067;-70
2022/04/24 01:31:51;;;;;;;13.25;7.25;;;9.10;99.90;;;;;;5022582;28;20414;-70
2022/04/24 01:34:18;;;;;;;9.65;6.68;;;9.10;99.90;;;;;;5023696;28;20127;-70
2022/04/24 01:36:44;;;;;;;10.68;7.20;;;9.20;99.90;;;;;;5016616;28;20045;-70
2022/04/24 01:39:10;;;;;;;11.32;6.63;;;9.20;99.90;;;;;;5019768;28;20041;-69
2022/04/24 01:41:36;;;;;;;9.55;6.53;;;9.00;99.90;;;;;;5021889;28;20029;-70
2022/04/24 01:44:03;;;;;;;12.20;6.75;;;9.10;99.90;;;;;;5022435;28;20060;-70
2022/04/24 01:46:29;;;;;;;11.38;7.18;;;9.00;99.90;;;;;;5020056;28;20092;-70
2022/04/24 01:48:55;;;;;;;10.43;6.88;;;8.90;99.90;;;;;;5019859;28;20088;-70
2022/04/24 01:51:20;;;;;;;9.70;6.45;;;9.00;99.90;;;;;;5019375;28;20820;-70
2022/04/24 01:53:46;;;;;;;10.52;6.72;;;8.90;99.90;;;;;;5002053;28;20099;-70
2022/04/24 01:56:13;;;;;;;10.80;6.68;;;8.90;99.90;;;;;;5019521;28;20052;-70
2022/04/24 01:58:39;;;;;;;9.80;6.22;;;8.90;99.90;;;;;;5019423;28;20048;-71
2022/04/24 02:01:07;;;;;;;9.98;6.45;;;8.90;99.90;;;;;;5018162;28;20090;-71
2022/04/24 02:03:34;;;;;;;10.02;6.60;;;8.70;99.90;;;;;;5018767;28;20619;-71
2022/04/24 02:06:01;;;;;;;10.07;6.97;;;8.70;99.90;;;;;;5017100;28;20659;-70
2022/04/24 02:08:27;;;;;;;11.05;6.68;;;8.60;99.90;;;;;;5019362;28;20051;-71
2022/04/24 02:10:53;;;;;;;10.70;6.95;;;8.40;99.90;;;;;;5016639;28;21026;-71
2022/04/24 02:13:19;;;;;;;11.23;7.15;;;8.30;99.90;;;;;;4992290;28;20033;-71
2022/04/24 02:15:49;;;;;;;11.68;6.93;;;8.50;99.90;;;;;;5017909;28;20038;-71
2022/04/24 02:18:15;;;;;;;13.23;6.90;;;8.50;99.90;;;;;;5013144;28;20085;-71
2022/04/24 02:20:44;;;;;;;9.82;6.43;;;8.50;99.90;;;;;;4997969;28;20072;-71
2022/04/24 02:23:10;;;;;;;13.20;7.05;;;8.50;99.90;;;;;;5020886;28;20055;-71
2022/04/24 02:25:36;;;;;;;11.00;7.40;;;8.40;99.90;;;;;;5004445;28;20060;-71
2022/04/24 02:28:02;;;;;;;9.90;6.80;;;8.40;99.90;;;;;;5013894;28;20091;-71
2022/04/24 02:30:29;;;;;;;10.90;6.53;;;8.40;99.90;;;;;;5018866;28;20122;-71
2022/04/24 02:32:57;;;;;;;10.88;6.38;;;8.30;99.90;;;;;;5017304;28;20052;-71
2022/04/24 02:35:23;;;;;;;12.27;6.40;;;8.30;99.90;;;;;;5021638;28;20296;-70
2022/04/24 02:37:49;;;;;;;10.57;6.15;;;8.20;99.90;;;;;;5018208;28;20051;-70
2022/04/24 02:40:19;;;;;;;9.60;6.45;;;8.30;99.90;;;;;;5021610;28;20048;-71
2022/04/24 02:42:45;;;;;;;10.02;6.53;;;8.20;99.90;;;;;;5015573;28;20068;-71
2022/04/24 02:45:11;;;;;;;11.13;6.40;;;8.20;99.90;;;;;;4995199;28;20053;-71
2022/04/24 02:47:40;;;;;;;10.30;6.22;;;8.30;99.90;;;;;;4994237;28;20051;-71
2022/04/24 02:50:07;;;;;;;11.73;6.97;;;8.30;99.90;;;;;;4996860;28;20037;-70
2022/04/24 02:52:43;;;;;;;12.07;6.68;;;8.20;99.90;;;;;;4998393;28;20571;-71
2022/04/24 02:55:09;;;;;;;10.50;6.18;;;8.10;99.90;;;;;;4995406;28;20075;-70
2022/04/24 02:57:36;;;;;;;9.73;6.22;;;8.10;99.90;;;;;;4995577;28;20128;-70
2022/04/24 03:00:03;;;;;;;10.63;6.82;;;8.20;99.90;;;;;;5001694;28;20107;-70
2022/04/24 03:02:29;;;;;;;10.07;6.25;;;8.10;99.90;;;;;;4996103;28;20045;-70
2022/04/24 03:04:55;;;;;;;11.25;5.97;;;8.00;99.90;;;;;;4996309;28;20068;-70
2022/04/24 03:07:21;;;;;;;10.32;6.15;;;7.90;99.90;;;;;;5017376;28;20896;-70
2022/04/24 03:09:46;;;;;;;9.73;6.57;;;7.80;99.90;;;;;;5002521;28;20084;-70
2022/04/24 03:12:12;;;;;;;9.07;6.05;;;7.80;99.90;;;;;;4995852;28;20045;-71
2022/04/24 03:14:38;;;;;;;9.57;6.63;;;7.80;99.90;;;;;;4998570;28;20438;-70
2022/04/24 03:17:04;;;;;;;12.75;6.70;;;7.90;99.90;;;;;;4993710;28;20072;-71
2022/04/24 03:19:30;;;;;;;13.70;6.95;;;7.80;99.90;;;;;;4996126;28;20042;-71
2022/04/24 03:21:56;;;;;;;11.52;6.35;;;7.70;99.90;;;;;;4998230;28;20064;-70
2022/04/24 03:24:22;;;;;;;13.90;6.55;;;7.70;99.90;;;;;;4996527;28;20047;-70
2022/04/24 03:26:47;;;;;;;10.30;6.32;;;7.60;99.90;;;;;;5001324;28;20538;-70
2022/04/24 03:29:13;;;;;;;10.23;6.63;;;7.40;99.90;;;;;;4995507;28;20130;-71
2022/04/24 03:31:39;;;;;;;10.45;6.13;;;7.50;99.90;;;;;;5000452;28;20056;-71
2022/04/24 03:34:06;;;;;;;11.38;6.13;;;7.50;99.90;;;;;;4993629;28;20049;-70
2022/04/24 03:36:31;;;;;;;9.63;5.95;;;7.50;99.90;;;;;;4995159;28;20041;-70
2022/04/24 03:38:57;;;;;;;9.23;6.05;;;7.60;99.90;;;;;;4996322;28;20060;-70
2022/04/24 03:41:23;;;;;;;8.73;5.68;;;7.70;99.90;;;;;;4995510;28;20048;-71
2022/04/24 03:43:49;;;;;;;11.27;6.18;;;7.60;99.90;;;;;;5002574;28;20082;-71
2022/04/24 03:46:15;;;;;;;11.75;6.32;;;7.60;99.90;;;;;;5013621;28;20516;-70
2022/04/24 03:48:41;;;;;;;9.80;6.22;;;7.70;99.90;;;;;;5015228;28;20041;-70
2022/04/24 03:51:08;;;;;;;8.68;5.75;;;7.60;99.90;;;;;;5010559;28;20051;-70
2022/04/24 03:53:33;;;;;;;10.13;5.38;;;7.60;99.90;;;;;;5013145;28;20152;-70
2022/04/24 03:56:00;;;;;;;15.10;6.28;;;7.60;99.90;;;;;;5018010;28;20876;-70
2022/04/24 03:58:25;;;;;;;8.57;5.85;;;7.50;99.90;;;;;;5018679;28;20052;-70
2022/04/24 04:00:51;;;;;;;11.30;5.70;;;7.30;99.90;;;;;;5012876;28;20045;-71
2022/04/24 04:03:17;;;;;;;10.68;5.80;;;7.40;99.90;;;;;;5015843;28;20103;-70
2022/04/24 04:05:43;;;;;;;9.25;5.85;;;7.30;99.90;;;;;;5018866;28;20458;-70
2022/04/24 04:08:09;;;;;;;15.02;6.07;;;7.50;99.90;;;;;;4998615;28;20091;-71
2022/04/24 04:10:35;;;;;;;9.27;5.63;;;7.40;99.90;;;;;;5022243;28;20045;-70
2022/04/24 04:13:06;;;;;;;10.43;5.97;;;7.40;99.90;;;;;;5017982;28;20052;-70
2022/04/24 04:15:32;;;;;;;12.43;6.40;;;7.30;99.90;;;;;;5023116;28;20047;-70
2022/04/24 04:17:58;;;;;;;9.43;5.85;;;7.40;99.90;;;;;;5019615;28;20160;-70
2022/04/24 04:20:24;;;;;;;10.55;6.13;;;7.30;99.90;;;;;;5016517;28;20051;-71
2022/04/24 04:22:51;;;;;;;12.70;5.60;;;7.30;99.90;;;;;;5019309;28;20759;-70
2022/04/24 04:25:24;;;;;;;9.75;5.95;;;7.40;99.90;;;;;;5018126;28;20048;-71
2022/04/24 04:27:52;;;;;;;10.27;5.63;;;7.30;99.90;;;;;;5019848;28;20543;-70
2022/04/24 04:30:18;;;;;;;30.77;7.10;;;7.30;99.90;;;;;;5020214;28;20599;-70
2022/04/24 04:32:45;;;;;;;9.77;5.40;;;7.20;99.90;;;;;;5001213;28;20052;-70
2022/04/24 04:35:12;;;;;;;10.32;5.82;;;7.30;99.90;;;;;;5018170;28;20091;-70
2022/04/24 04:37:39;;;;;;;11.10;6.00;;;7.30;99.90;;;;;;5018382;28;20116;-70
2022/04/24 04:40:06;;;;;;;23.67;6.97;;;7.20;99.90;;;;;;5000225;28;21661;-70
2022/04/24 04:42:33;;;;;;;28.38;6.72;;;7.10;99.90;;;;;;5021124;28;20296;-71
2022/04/24 04:45:00;;;;;;;8.65;5.28;;;7.10;99.90;;;;;;5000731;28;20135;-70
2022/04/24 04:47:29;;;;;;;11.00;5.28;;;7.10;99.90;;;;;;5015198;28;20040;-70
2022/04/24 04:49:55;;;;;;;9.27;5.28;;;7.20;99.90;;;;;;5005304;28;20868;-70
2022/04/24 04:52:22;;;;;;;10.18;5.82;;;7.20;99.90;;;;;;5019539;28;20094;-70
2022/04/24 04:54:48;;;;;;;21.67;6.65;;;7.30;99.90;;;;;;5018372;28;20106;-71
2022/04/24 04:57:14;;;;;;;12.48;5.90;;;7.70;99.90;;;;;;5007207;28;20419;-71
2022/04/24 04:59:41;;;;;;;16.65;6.15;;;7.70;99.90;;;;;;5018132;28;20102;-70
2022/04/24 05:02:06;;;;;;;16.75;5.55;;;7.90;99.90;;;;;;5019755;28;20083;-70
2022/04/24 05:04:32;;;;;;;9.63;5.90;;;8.30;99.90;;;;;;5019588;28;20150;-70
2022/04/24 05:06:59;;;;;;;10.63;5.88;;;8.60;99.90;;;;;;5018984;28;20491;-70
2022/04/24 05:09:25;;;;;;;9.15;5.72;;;9.30;99.90;;;;;;5021205;28;20412;-71
2022/04/24 05:11:53;;;;;;;9.65;5.30;;;9.40;99.90;;;;;;5020525;28;20060;-70
2022/04/24 05:14:19;;;;;;;8.32;5.65;;;9.90;99.90;;;;;;5000928;28;20052;-70
2022/04/24 05:16:45;;;;;;;9.00;5.25;;;10.30;99.90;;;;;;5018303;28;20052;-71
2022/04/24 05:19:11;;;;;;;14.55;6.07;;;10.30;99.90;;;;;;5022459;28;20156;-70
2022/04/24 05:21:36;;;;;;;11.63;6.80;;;10.10;99.90;;;;;;5026554;28;20044;-70
2022/04/24 05:24:03;;;;;;;11.13;6.35;;;10.70;99.90;;;;;;5017334;28;20494;-70
2022/04/24 05:26:29;;;;;;;10.77;6.47;;;10.60;99.90;;;;;;5001420;28;20098;-70
2022/04/24 05:28:54;;;;;;;12.60;6.40;;;10.80;99.90;;;;;;4996701;28;20052;-71
2022/04/24 05:31:21;;;;;;;11.20;6.30;;;11.50;99.90;;;;;;5018538;28;20052;-71
2022/04/24 05:33:47;;;;;;;10.27;6.50;;;11.40;99.90;;;;;;5012713;28;20064;-71
2022/04/24 05:36:12;;;;;;;8.50;6.00;;;11.60;99.90;;;;;;5018581;28;20041;-71
2022/04/24 05:38:39;;;;;;;8.88;6.35;;;11.30;99.90;;;;;;4999404;28;20045;-70
2022/04/24 05:41:05;;;;;;;11.68;6.40;;;11.20;99.90;;;;;;5018818;28;20143;-71
2022/04/24 05:43:31;;;;;;;9.80;5.80;;;11.30;99.90;;;;;;5015408;28;20904;-71
2022/04/24 05:45:57;;;;;;;8.68;6.05;;;10.80;99.90;;;;;;5014647;28;20053;-71
2022/04/24 05:48:23;;;;;;;10.20;6.38;;;10.80;99.90;;;;;;5015545;28;20637;-71
2022/04/24 05:50:49;;;;;;;8.50;6.32;;;10.60;99.90;;;;;;4998937;28;20115;-70
2022/04/24 05:53:15;;;;;;;11.40;6.20;;;9.80;99.90;;;;;;4999483;28;20052;-71
2022/04/24 05:55:41;;;;;;;10.63;6.00;;;9.80;99.90;;;;;;5017598;28;20117;-69
2022/04/24 05:58:07;;;;;;;9.60;6.47;;;9.80;99.90;;;;;;5015578;28;20156;-71
2022/04/24 06:00:33;;;;;;;10.82;6.25;;;9.60;99.90;;;;;;5020813;28;20041;-71
2022/04/24 06:03:00;;;;;;;9.40;6.00;;;9.60;99.90;;;;;;5018370;28;20580;-71
2022/04/24 06:05:26;;;;;;;9.35;6.10;;;9.90;99.90;;;;;;5018497;28;20041;-71
2022/04/24 06:07:52;;;;;;;9.23;6.30;;;9.30;99.90;;;;;;4998442;28;20521;-71
2022/04/24 06:10:18;;;;;;;13.40;6.40;;;9.20;99.90;;;;;;5014905;28;20041;-71
2022/04/24 06:12:46;;;;;;;10.00;6.22;;;9.30;99.90;;;;;;5020278;28;20044;-71
2022/04/24 06:15:15;;;;;;;10.25;6.40;;;9.30;99.90;;;;;;5018929;28;20110;-71
2022/04/24 06:17:43;;;;;;;10.35;6.25;;;9.20;99.90;;;;;;5001314;28;20051;-70
2022/04/24 06:20:10;;;;;;;10.95;6.15;;;9.20;99.90;;;;;;5012238;28;20049;-71
2022/04/24 06:22:49;;;;;;;10.75;6.03;;;9.20;99.90;;;;;;5013189;28;20049;-71
2022/04/24 06:25:18;;;;;;;10.25;6.18;;;9.20;99.90;;;;;;5018683;28;20049;-71
2022/04/24 06:27:46;;;;;;;12.32;6.60;;;9.40;99.90;;;;;;5018840;28;20683;-70
2022/04/24 06:30:13;;;;;;;12.02;6.28;;;9.50;99.90;;;;;;5020469;28;20044;-70
2022/04/24 06:32:41;;;;;;;9.70;6.43;;;9.60;99.90;;;;;;5021499;28;20542;-71
2022/04/24 06:35:12;;;;;;;12.40;6.22;;;9.60;99.90;;;;;;5014692;28;20079;-71
2022/04/24 06:37:39;;;;;;;10.95;6.07;;;10.10;99.90;;;;;;5018364;28;20518;-70
2022/04/24 06:40:07;;;;;;;9.57;6.43;;;9.80;99.90;;;;;;5016381;28;20044;-71
2022/04/24 06:42:33;;;;;;;10.27;6.55;;;9.90;99.90;;;;;;4995550;28;20127;-71
2022/04/24 06:45:00;;;;;;;9.25;6.20;;;10.00;99.90;;;;;;5014648;28;20048;-71
2022/04/24 06:47:27;;;;;;;13.50;6.97;;;9.90;99.90;;;;;;5017995;28;20056;-71
2022/04/24 06:49:56;;;;;;;9.27;6.32;;;10.30;99.90;;;;;;5018462;28;20053;-71
2022/04/24 06:52:22;;;;;;;15.00;6.15;;;10.10;99.90;;;;;;5018964;28;20114;-71
2022/04/24 06:54:48;;;;;;;11.23;5.80;;;10.30;99.90;;;;;;4999272;28;20048;-70
2022/04/24 06:57:14;;;;;;;11.10;5.93;;;10.20;99.90;;;;;;4999369;28;20581;-70
2022/04/24 06:59:40;;;;;;;21.10;6.90;;;10.40;99.90;;;;;;5001348;28;20855;-71
2022/04/24 07:02:06;;;;;;;10.30;6.22;;;10.80;99.90;;;;;;5016149;28;20045;-71
2022/04/24 07:04:32;;;;;;;12.85;6.07;;;10.60;99.90;;;;;;5013032;28;20076;-71
2022/04/24 07:06:58;;;;;;;9.65;6.47;;;10.60;99.90;;;;;;4994384;28;20102;-71
2022/04/24 07:09:24;;;;;;;8.20;5.70;;;10.90;99.90;;;;;;5016066;28;20044;-71
2022/04/24 07:11:50;;;;;;;10.95;6.13;;;11.10;99.90;;;;;;4997418;28;20056;-71
2022/04/24 07:14:16;;;;;;;13.70;6.10;;;11.60;99.90;;;;;;4993501;28;20523;-71
2022/04/24 07:16:41;;;;;;;10.70;6.30;;;11.60;99.90;;;;;;5015473;28;20045;-71
2022/04/24 07:19:08;;;;;;;11.73;5.55;;;10.90;99.90;;;;;;5024355;28;20048;-71
2022/04/24 07:21:34;;;;;;;11.55;5.97;;;11.30;99.90;;;;;;5030276;28;20048;-71
2022/04/24 07:23:59;;;;;;;9.68;6.15;;;11.00;99.90;;;;;;5027986;28;20041;-70
2022/04/24 07:26:25;;;;;;;9.93;6.28;;;11.00;99.90;;;;;;5019101;28;20889;-70
2022/04/24 07:28:51;;;;;;;11.38;6.05;;;11.20;99.90;;;;;;4997518;28;20060;-70
2022/04/24 07:31:19;;;;;;;12.23;5.85;;;11.40;99.90;;;;;;5018047;28;20300;-70
2022/04/24 07:33:45;;;;;;;10.68;6.13;;;11.40;99.90;;;;;;5016491;28;20119;-71
2022/04/24 07:36:11;;;;;;;10.88;6.03;;;11.90;99.90;;;;;;5020115;28;20084;-70
2022/04/24 07:38:37;;;;;;;11.27;5.45;;;11.70;99.90;;;;;;5021253;28;20048;-70
2022/04/24 07:41:03;;;;;;;9.57;5.60;;;11.50;99.90;;;;;;4997939;28;20041;-70
2022/04/24 07:43:29;;;;;;;8.70;5.63;;;11.50;99.90;;;;;;5020091;28;21063;-71
2022/04/24 07:45:55;;;;;;;33.97;7.43;;;11.60;99.90;;;;;;5013078;28;20058;-71
2022/04/24 07:48:21;;;;;;;15.65;5.88;;;11.90;99.90;;;;;;5018131;28;20045;-71
2022/04/24 07:50:50;;;;;;;10.15;6.28;;;12.00;99.90;;;;;;5012338;28;20511;-72
2022/04/24 07:53:17;;;;;;;9.73;5.75;;;11.80;99.90;;;;;;4983132;28;20045;-71
2022/04/24 07:55:44;;;;;;;11.05;5.85;;;12.00;99.90;;;;;;5006335;28;20036;-71
2022/04/24 07:58:11;;;;;;;9.60;5.53;;;12.20;99.90;;;;;;4995216;28;20056;-71
2022/04/24 08:00:38;;;;;;;10.00;5.55;;;12.30;99.90;;;;;;5031045;28;20055;-71
2022/04/24 08:03:09;;;;;;;7.72;4.90;;;12.80;99.90;;;;;;5015216;28;20161;-71
2022/04/24 08:05:46;;;;;;;10.70;5.38;;;12.90;99.90;;;;;;4993241;28;20091;-71
2022/04/24 08:08:20;;;;;;;7.32;4.75;;;13.20;99.90;;;;;;5028440;28;20113;-71
2022/04/24 08:10:48;;;;;;;8.75;4.82;;;13.60;99.90;;;;;;5019610;28;20052;-71
2022/04/24 08:13:15;;;;;;;7.18;4.40;;;13.70;99.90;;;;;;5028618;28;20049;-71
2022/04/24 08:15:42;;;;;;;8.80;4.70;;;13.40;99.90;;;;;;5030293;28;20471;-71
2022/04/24 08:18:09;;;;;;;6.57;4.25;;;13.30;99.90;;;;;;5026443;28;21036;-71
2022/04/24 08:20:35;;;;;;;7.95;4.13;;;13.50;93.20;;;;;;5008585;28;20056;-72
2022/04/24 08:23:04;;;;;;;16.60;4.50;;;13.40;96.60;;;;;;5028417;28;20037;-71
2022/04/24 08:25:35;;;;;;;8.52;4.38;;;13.40;99.90;;;;;;5007626;28;20049;-72
2022/04/24 08:28:06;;;;;;;8.88;4.60;;;13.70;99.90;;;;;;5025578;28;20040;-71
2022/04/24 08:30:34;;;;;;;9.18;4.70;;;13.70;99.90;;;;;;5025014;28;20573;-71
2022/04/24 08:33:00;;;;;;;10.52;4.93;;;13.50;99.90;;;;;;5028741;28;20045;-71
2022/04/24 08:35:26;;;;;;;8.07;4.45;;;13.50;99.30;;;;;;5028023;28;20121;-71
2022/04/24 08:37:52;;;;;;;8.30;4.43;;;14.20;99.30;;;;;;5029302;28;20049;-72
2022/04/24 08:40:20;;;;;;;10.00;4.75;;;14.80;96.10;;;;;;5028503;28;20647;-72
2022/04/24 08:42:47;;;;;;;7.38;4.20;;;14.40;91.30;;;;;;5028758;28;20056;-71
2022/04/24 08:45:14;;;;;;;7.85;4.40;;;14.40;99.90;;;;;;5022109;28;20065;-71
2022/04/24 08:47:41;;;;;;;8.63;4.53;;;14.10;96.50;;;;;;5028055;28;20752;-71
2022/04/24 08:50:08;;;;;;;7.88;4.50;;;14.40;99.90;;;;;;5005644;28;20790;-72
2022/04/24 08:52:35;;;;;;;8.25;4.50;;;14.90;89.70;;;;;;5019964;28;20059;-72
2022/04/24 08:55:02;;;;;;;9.60;4.25;;;14.70;99.90;;;;;;5027775;28;20053;-72
2022/04/24 08:57:30;;;;;;;8.43;4.32;;;14.50;96.50;;;;;;5023331;28;20932;-72
2022/04/24 09:00:00;;;;;;;9.52;4.60;;;14.70;96.80;;;;;;5028327;28;20060;-71
2022/04/24 09:02:26;;;;;;;7.57;4.07;;;14.60;91.60;;;;;;5015419;28;20072;-71
2022/04/24 09:04:53;;;;;;;9.73;4.70;;;14.30;87.10;;;;;;5018129;28;20408;-71
2022/04/24 09:07:20;;;;;;;8.90;4.30;;;14.50;88.90;;;;;;5002340;28;20381;-72
2022/04/24 09:09:51;;;;;;;7.80;4.28;;;14.90;92.00;;;;;;5017062;28;20057;-72
2022/04/24 09:12:25;;;;;;;6.60;3.88;;;14.40;89.10;;;;;;5015086;28;20045;-72
2022/04/24 09:14:53;;;;;;;7.15;3.80;;;14.70;79.10;;;;;;5020335;28;20037;-72
2022/04/24 09:17:23;;;;;;;6.75;3.97;;;14.90;82.20;;;;;;4991926;28;20555;-71
2022/04/24 09:19:50;;;;;;;10.95;4.20;;;15.30;91.10;;;;;;5022430;28;20033;-71
2022/04/24 09:22:17;;;;;;;7.25;4.05;;;15.30;97.20;;;;;;5016477;28;20044;-71
2022/04/24 09:24:48;;;;;;;6.47;3.50;;;15.60;92.30;;;;;;5004324;28;20039;-72
2022/04/24 09:27:27;;;;;;;7.90;3.85;;;15.00;87.80;;;;;;5020557;28;20052;-72
2022/04/24 09:29:55;;;;;;;9.70;3.53;;;15.10;78.50;;;;;;5019625;28;20045;-72
2022/04/24 09:32:26;;;;;;;8.88;3.58;;;15.60;75.40;;;;;;5019408;28;20524;-71
2022/04/24 09:34:52;;;;;;;7.47;3.58;;;16.00;79.30;;;;;;5024983;28;20151;-72
2022/04/24 09:37:19;;;;;;;6.38;3.40;;;15.60;74.20;;;;;;5024202;28;20048;-72
2022/04/24 09:39:46;;;;;;;11.68;3.67;;;16.30;71.20;;;;;;5002802;28;21300;-71
2022/04/24 09:42:14;;;;;;;7.85;3.15;;;16.00;74.70;;;;;;5020820;28;20538;-72
2022/04/24 09:44:47;;;;;;;5.55;2.88;;;16.50;74.70;;;;;;5024339;28;20605;-71
2022/04/24 09:47:16;;;;;;;9.07;3.28;;;16.10;72.50;;;;;;5004075;28;20103;-71
2022/04/24 09:49:46;;;;;;;5.00;2.85;;;16.10;69.10;;;;;;5024807;28;20564;-72
2022/04/24 09:52:14;;;;;;;10.90;2.80;;;16.60;68.80;;;;;;5018100;28;20056;-72
2022/04/24 09:54:49;;;;;;;6.10;2.83;;;16.50;69.50;;;;;;5028494;28;20113;-72
2022/04/24 09:57:16;;;;;;;9.93;2.95;;;16.50;70.10;;;;;;5013460;28;20466;-72
2022/04/24 09:59:46;;;;;;;4.93;3.10;;;16.40;66.00;;;;;;5011513;28;20044;-71
2022/04/24 10:02:15;;;;;;;7.05;3.08;;;16.80;69.60;;;;;;5022194;28;20051;-71
2022/04/24 10:04:42;;;;;;;5.57;2.85;;;16.50;64.40;;;;;;5022683;28;20048;-71
2022/04/24 10:07:11;;;;;;;7.60;2.83;;;16.40;65.00;;;;;;5004613;28;20051;-70
2022/04/24 10:09:46;;;;;;;7.03;3.05;;;16.80;68.40;;;;;;5023612;28;20084;-71
2022/04/24 10:12:18;;;;;;;4.25;2.47;;;17.10;67.30;;;;;;5022839;28;20904;-71
2022/04/24 10:15:00;;;;;;;6.35;3.00;;;17.90;64.70;;;;;;5008380;28;20804;-70
2022/04/24 10:17:31;;;;;;;7.38;2.90;;;17.70;63.70;;;;;;5019340;28;20052;-70
2022/04/24 10:20:19;;;;;;;8.50;2.60;;;18.10;66.40;;;;;;5003048;28;20080;-71
2022/04/24 10:22:47;;;;;;;5.93;2.83;;;18.10;72.90;;;;;;5024522;28;20049;-71
2022/04/24 10:25:17;;;;;;;7.85;2.90;;;17.40;65.50;;;;;;5003407;28;20341;-71
2022/04/24 10:27:45;;;;;;;6.35;2.72;;;17.40;62.60;;;;;;5011528;28;20048;-71
2022/04/24 10:30:13;;;;;;;6.18;2.53;;;16.90;62.60;;;;;;5023712;28;20155;-71
2022/04/24 10:32:39;;;;;;;9.63;2.83;;;16.90;60.00;;;;;;5021106;28;20041;-72
2022/04/24 10:35:17;;;;;;;5.78;2.33;;;17.00;62.80;;;;;;5017956;28;20226;-71
2022/04/24 10:37:44;;;;;;;6.60;3.20;;;16.90;65.50;;;;;;5008063;28;20057;-71
2022/04/24 10:40:15;;;;;;;6.25;2.90;;;17.10;60.60;;;;;;5019207;28;20048;-70
2022/04/24 10:42:43;;;;;;;7.45;3.10;;;16.90;62.20;;;;;;5017755;28;20133;-70
2022/04/24 10:45:10;;;;;;;6.55;2.90;;;16.90;62.40;;;;;;5019701;28;20063;-70
2022/04/24 10:47:47;;;;;;;5.05;2.60;;;16.50;60.00;;;;;;5022509;28;20060;-70
2022/04/24 10:50:13;;;;;;;7.57;3.20;;;16.00;60.60;;;;;;5005815;28;20535;-71
2022/04/24 10:52:44;;;;;;;6.10;2.70;;;16.70;63.30;;;;;;5026660;28;20127;-71
2022/04/24 10:55:12;;;;;;;6.70;3.00;;;16.70;63.80;;;;;;5023728;28;20131;-71
2022/04/24 10:57:46;;;;;;;8.00;3.03;;;16.70;65.80;;;;;;5027078;28;20047;-70
2022/04/24 11:00:19;;;;;;;5.85;3.20;;;16.80;67.90;;;;;;5015654;28;20535;-71
2022/04/24 11:02:47;;;;;;;6.43;3.10;;;16.80;62.50;;;;;;5025002;28;20288;-71
2022/04/24 11:05:18;;;;;;;6.28;2.88;;;17.00;65.40;;;;;;5026687;28;20069;-72
2022/04/24 11:07:45;;;;;;;5.60;2.70;;;17.30;66.20;;;;;;5027134;28;20044;-71
2022/04/24 11:10:12;;;;;;;6.30;2.80;;;18.00;64.80;;;;;;5024727;28;20053;-71
2022/04/24 11:12:40;;;;;;;6.55;2.90;;;17.90;62.70;;;;;;5003645;28;20051;-72
2022/04/24 11:15:11;;;;;;;5.72;3.03;;;17.30;63.90;;;;;;5004950;28;20499;-71
2022/04/24 11:17:38;;;;;;;5.72;2.85;;;17.50;60.60;;;;;;5013750;28;20045;-71
2022/04/24 11:20:09;;;;;;;5.97;2.85;;;17.60;61.90;;;;;;5018883;28;20040;-71
2022/04/24 11:22:50;;;;;;;10.13;2.97;;;17.60;61.60;;;;;;5027072;28;20045;-71
2022/04/24 11:25:24;;;;;;;6.85;2.55;;;18.40;64.30;;;;;;5026185;28;20056;-71
2022/04/24 11:27:52;;;;;;;6.00;3.00;;;18.20;59.60;;;;;;5030782;28;20520;-71
2022/04/24 11:30:26;;;;;;;6.05;3.28;;;17.80;61.40;;;;;;5005263;28;21104;-70
2022/04/24 11:33:06;;;;;;;8.18;3.20;;;17.70;59.10;;;;;;5032092;28;20059;-72
2022/04/24 11:35:35;;;;;;;4.68;2.88;;;17.70;59.10;;;;;;5010516;28;20051;-72
2022/04/24 11:38:02;;;;;;;6.28;2.80;;;16.80;59.20;;;;;;5029562;28;20038;-71
2022/04/24 11:40:28;;;;;;;6.25;2.80;;;17.10;60.00;;;;;;5035151;28;20084;-71
2022/04/24 11:43:04;;;;;;;4.70;2.50;;;17.70;61.20;;;;;;5027646;28;20149;-71
2022/04/24 11:51:11;;;;;;;6.55;2.70;;;17.60;59.20;;;;;;5022516;28;20084;-71
2022/04/24 11:53:38;;;;;;;11.63;2.92;;;18.20;64.30;;;;;;5027244;28;20453;-73
2022/04/24 11:56:05;;;;;;;6.25;2.72;;;19.10;67.80;;;;;;5021309;28;20158;-72
2022/04/24 11:58:39;;;;;;;5.10;2.80;;;18.50;58.30;;;;;;5026266;28;20854;-72
2022/04/24 12:01:07;;;;;;;;;;;18.60;60.50;;;;;;5011669;28;20083;-72
2022/04/24 12:03:34;;;;;;;6.18;2.80;;;18.20;60.80;;;;;;5026956;28;19920;-72
2022/04/24 12:06:02;;;;;;;6.25;2.90;;;17.70;62.20;;;;;;5024462;28;20149;-71
2022/04/24 12:08:52;;;;;;;6.25;2.95;;;17.80;62.90;;;;;;5029041;28;20037;-72
2022/04/24 12:11:26;;;;;;;7.32;2.92;;;18.20;62.10;;;;;;5014355;28;20044;-72
2022/04/24 12:14:03;;;;;;;3.58;2.40;;;17.00;58.40;;;;;;5010472;28;20053;-72
2022/04/24 12:16:30;;;;;;;6.20;2.92;;;17.50;61.20;;;;;;5026450;28;20070;-71
2022/04/24 12:18:58;;;;;;;6.88;2.92;;;17.30;59.60;;;;;;5028155;28;20055;-72
2022/04/24 12:21:24;;;;;;;6.35;3.00;;;16.80;58.00;;;;;;5027238;28;20052;-71
2022/04/24 12:23:52;;;;;;;5.60;2.97;;;17.00;58.30;;;;;;5027356;28;20040;-72
2022/04/24 12:26:18;;;;;;;6.13;2.88;;;17.50;61.30;;;;;;5022164;28;20045;-72
2022/04/24 12:28:44;;;;;;;8.68;3.30;;;17.10;57.50;;;;;;5030872;28;20136;-71
2022/04/24 12:31:23;;;;;;;6.47;3.17;;;17.30;58.70;;;;;;5017796;28;20864;-72
2022/04/24 12:33:52;;;;;;;6.13;2.90;;;18.30;60.60;;;;;;5024300;28;20507;-72
2022/04/24 12:36:19;;;;;;;6.53;2.50;;;18.20;59.20;;;;;;5030013;28;20051;-71
2022/04/24 12:39:06;;;;;;;7.60;2.95;;;17.00;57.00;;;;;;5027870;28;20040;-72
2022/04/24 12:41:35;;;;;;;21.27;3.42;;;18.50;60.80;;;;;;5030055;28;20091;-71
2022/04/24 12:44:03;;;;;;;5.88;2.40;;;18.70;55.80;;;;;;5033128;28;20132;-71
2022/04/24 12:46:30;;;;;;;17.50;3.55;;;18.50;58.10;;;;;;5039448;28;20850;-72
2022/04/24 12:48:57;;;;;;;7.10;2.50;;;18.60;56.90;;;;;;5017777;28;20059;-71
2022/04/24 12:51:24;;;;;;;7.00;2.70;;;17.40;59.90;;;;;;5006877;28;20707;-72
2022/04/24 12:53:51;;;;;;;4.00;2.30;;;16.60;58.40;;;;;;5013255;28;20349;-72